Time;durP1;ratioP1;P1;durP2;ratioP2;P2;SDS_P1;SDS_P2;PMS_P1;PMS_P2;Temp;Humidity;BMP_temperature;BMP_pressure;BME280_temperature;BME280_humidity;BME280_pressure;Samples;Min_cycle;Max_cycle;Signal;HPM_P1;HPM_P2
2021/04/11 00:01:20;;;;;;;;;;;;;;;14.93;33.50;100489.97;4261683;33;32318;-91
2021/04/11 00:03:48;;;;;;;;;;;;;;;13.13;36.48;100486.25;4250164;33;33891;-91
2021/04/11 00:06:16;;;;;;;;;;;;;;;13.18;36.76;100482.56;4261793;33;33927;-92
2021/04/11 00:08:43;;;;;;;;;;;;;;;12.74;38.01;100489.09;4261579;33;33011;-91
2021/04/11 00:11:10;;;;;;;;;;;;;;;13.11;37.66;100486.28;4250039;33;32161;-91
2021/04/11 00:13:39;;;;;;;;;;;;;;;13.39;37.30;100488.13;4238207;33;33879;-92
2021/04/11 00:16:06;;;;;;;;;;;;;;;12.98;38.19;100491.00;4249692;33;32848;-91
2021/04/11 00:18:34;;;;;;;;;;;;;;;13.62;36.51;100487.38;4249817;33;33609;-92
2021/04/11 00:21:03;;;;;;;;;;;;;;;13.98;34.77;100496.72;4250039;33;32039;-91
2021/04/11 00:23:31;;;;;;;;;;;;;;;14.25;33.23;100489.69;4261747;33;34066;-91
2021/04/11 00:26:01;;;;;;;;;;;;;;;14.19;33.30;100489.91;4261134;33;34215;-92
2021/04/11 00:28:36;;;;;;;;;;;;;;;14.40;32.93;100483.09;4239442;33;33592;-91
2021/04/11 00:31:04;;;;;;;;;;;;;;;14.90;31.89;100491.84;4249456;33;31998;-91
2021/04/11 00:33:33;;;;;;;;;;;;;;;14.40;32.84;100484.81;4249732;33;33143;-91
2021/04/11 00:36:00;;;;;;;;;;;;;;;13.41;34.78;100488.91;4261271;33;34021;-92
2021/04/11 00:38:29;;;;;;;;;;;;;;;13.61;34.45;100483.03;4261281;33;33381;-91
2021/04/11 00:40:59;;;;;;;;;;;;;;;13.27;35.47;100486.69;4272673;33;31904;-92
2021/04/11 00:43:27;;;;;;;;;;;;;;;13.34;35.41;100489.97;4249113;33;33438;-92
2021/04/11 00:46:05;;;;;;;;;;;;;;;13.47;35.33;100478.25;4261118;33;33185;-91
2021/04/11 00:48:33;;;;;;;;;;;;;;;13.59;35.21;100479.62;4249209;33;32942;-92
2021/04/11 00:51:03;;;;;;;;;;;;;;;13.83;34.61;100482.38;4265626;33;33679;-91
2021/04/11 00:53:32;;;;;;;;;;;;;;;13.88;34.64;100471.72;4267696;33;33168;-92
2021/04/11 00:55:59;;;;;;;;;;;;;;;13.78;34.41;100482.50;4268189;33;32783;-91
2021/04/11 00:58:30;;;;;;;;;;;;;;;14.65;32.61;100480.47;4268457;33;32509;-90
2021/04/11 01:00:57;;;;;;;;;;;;;;;13.31;35.20;100485.69;4267091;33;34406;-90
2021/04/11 01:03:27;;;;;;;;;;;;;;;14.30;33.25;100481.69;4261982;33;33668;-91
2021/04/11 01:05:59;;;;;;;;;;;;;;;14.25;33.34;100479.19;4249083;33;33140;-92
2021/04/11 01:08:27;;;;;;;;;;;;;;;14.59;32.61;100477.19;4249965;33;33656;-91
2021/04/11 01:11:08;;;;;;;;;;;;;;;13.94;33.59;100474.16;4249483;33;32132;-91
2021/04/11 01:13:36;;;;;;;;;;;;;;;13.96;33.53;100470.59;4249486;33;32974;-91
2021/04/11 01:16:04;;;;;;;;;;;;;;;13.80;33.45;100472.84;4261153;33;32962;-92
2021/04/11 01:18:31;;;;;;;;;;;;;;;13.51;33.89;100469.41;4237460;33;33295;-91
2021/04/11 01:21:00;;;;;;;;;;;;;;;13.78;33.33;100460.72;4249070;33;32636;-90
2021/04/11 01:23:40;;;;;;;;;;;;;;;13.79;33.59;100460.66;4259246;33;32907;-91
2021/04/11 01:26:07;;;;;;;;;;;;;;;13.90;33.61;100457.69;4270403;33;35503;-91
2021/04/11 01:28:38;;;;;;;;;;;;;;;13.83;33.82;100445.72;4248904;33;33237;-91
2021/04/11 01:31:06;;;;;;;;;;;;;;;14.63;32.31;100456.06;4260512;33;32093;-91
2021/04/11 01:33:35;;;;;;;;;;;;;;;14.16;33.01;100459.44;4249294;33;33115;-92
2021/04/11 01:36:03;;;;;;;;;;;;;;;14.64;31.89;100452.53;4260999;33;33505;-92
2021/04/11 01:38:31;;;;;;;;;;;;;;;14.43;32.17;100453.28;4249179;33;33088;-91
2021/04/11 01:41:18;;;;;;;;;;;;;;;14.15;32.47;100455.09;4260905;33;32502;-91
2021/04/11 01:43:45;;;;;;;;;;;;;;;14.22;32.32;100462.75;4260851;33;33775;-91
2021/04/11 01:46:13;;;;;;;;;;;;;;;14.09;32.69;100467.53;4260764;33;33918;-91
2021/04/11 01:48:41;;;;;;;;;;;;;;;14.45;32.10;100465.44;4248990;33;33132;-92
2021/04/11 01:51:10;;;;;;;;;;;;;;;14.84;31.48;100464.91;4260688;33;32714;-90
2021/04/11 01:53:40;;;;;;;;;;;;;;;14.69;31.28;100460.22;4241979;33;32604;-92
2021/04/11 01:56:08;;;;;;;;;;;;;;;14.25;32.31;100457.37;4260974;33;34210;-91
2021/04/11 01:58:36;;;;;;;;;;;;;;;14.35;32.88;100459.62;4260594;33;32798;-91
2021/04/11 02:01:05;;;;;;;;;;;;;;;14.35;33.16;100448.31;4264862;33;32490;-91
2021/04/11 02:03:34;;;;;;;;;;;;;;;14.63;32.90;100453.44;4261206;33;34087;-92
2021/04/11 02:06:04;;;;;;;;;;;;;;;14.55;32.72;100463.31;4260810;33;33630;-91
2021/04/11 02:08:34;;;;;;;;;;;;;;;14.99;32.41;100460.00;4260546;33;34283;-92
2021/04/11 02:11:03;;;;;;;;;;;;;;;15.11;32.90;100459.53;4260806;33;32692;-92
2021/04/11 02:13:32;;;;;;;;;;;;;;;14.84;33.35;100458.81;4248806;33;32520;-92
2021/04/11 02:16:01;;;;;;;;;;;;;;;12.94;36.33;100463.25;4260967;33;34257;-92
2021/04/11 02:18:32;;;;;;;;;;;;;;;12.32;37.71;100458.88;4249007;33;32996;-91
2021/04/11 02:21:02;;;;;;;;;;;;;;;11.89;39.36;100463.41;4243282;33;33497;-91
2021/04/11 02:23:29;;;;;;;;;;;;;;;11.34;41.04;100471.66;4253454;33;33215;-91
2021/04/11 02:25:57;;;;;;;;;;;;;;;11.18;41.82;100463.31;4244357;33;32725;-91
2021/04/11 02:28:28;;;;;;;;;;;;;;;12.08;39.73;100465.59;4267651;33;33056;-91
2021/04/11 02:31:19;;;;;;;;;;;;;;;12.01;39.79;100463.13;4264091;33;33385;-92
2021/04/11 02:33:48;;;;;;;;;;;;;;;12.46;38.82;100463.75;4247806;33;33091;-92
2021/04/11 02:36:18;;;;;;;;;;;;;;;12.14;39.62;100462.84;4262256;33;33661;-92
2021/04/11 02:38:47;;;;;;;;;;;;;;;12.23;38.98;100467.81;4261200;33;34633;-91
2021/04/11 02:41:15;;;;;;;;;;;;;;;13.48;36.15;100461.66;4260484;33;32084;-91
2021/04/11 02:43:43;;;;;;;;;;;;;;;14.11;34.78;100461.34;4237530;33;33555;-91
2021/04/11 02:46:12;;;;;;;;;;;;;;;13.48;35.62;100458.16;4260615;33;33175;-94
2021/04/11 02:48:41;;;;;;;;;;;;;;;13.56;35.78;100456.19;4260785;33;34182;-91
2021/04/11 02:51:09;;;;;;;;;;;;;;;13.61;35.84;100456.03;4249199;33;33202;-92
2021/04/11 02:53:36;;;;;;;;;;;;;;;14.10;34.76;100462.25;4260545;33;33742;-92
2021/04/11 02:56:05;;;;;;;;;;;;;;;14.26;34.86;100456.50;4260322;33;33038;-92
2021/04/11 02:58:34;;;;;;;;;;;;;;;13.89;35.07;100452.50;4237083;33;32917;-92
2021/04/11 03:01:05;;;;;;;;;;;;;;;13.89;34.47;100444.66;4249186;33;33034;-92
2021/04/11 03:03:33;;;;;;;;;;;;;;;14.01;34.12;100439.84;4260540;33;34891;-92
2021/04/11 03:06:03;;;;;;;;;;;;;;;14.48;32.70;100446.09;4248519;33;33571;-92
2021/04/11 03:08:32;;;;;;;;;;;;;;;14.45;32.92;100443.56;4248572;33;33047;-92
2021/04/11 03:11:01;;;;;;;;;;;;;;;14.41;33.00;100444.59;4248353;33;33131;-92
2021/04/11 03:13:28;;;;;;;;;;;;;;;13.85;34.34;100452.62;4262049;33;33684;-91
2021/04/11 03:15:57;;;;;;;;;;;;;;;14.34;33.26;100457.91;4260574;33;33334;-92
2021/04/11 03:18:26;;;;;;;;;;;;;;;14.23;33.70;100459.22;4248892;33;33726;-91
2021/04/11 03:20:53;;;;;;;;;;;;;;;14.87;32.90;100456.91;4237619;33;32235;-91
2021/04/11 03:23:22;;;;;;;;;;;;;;;14.16;34.41;100455.94;4264983;33;33770;-92
2021/04/11 03:25:50;;;;;;;;;;;;;;;15.24;32.13;100459.91;4254373;33;34743;-92
2021/04/11 03:28:27;;;;;;;;;;;;;;;15.03;31.83;100462.44;4254882;33;34047;-91
2021/04/11 03:31:06;;;;;;;;;;;;;;;14.44;32.95;100463.72;4254955;33;32945;-92
2021/04/11 03:33:35;;;;;;;;;;;;;;;15.34;31.45;100465.66;4262414;33;35025;-91
2021/04/11 03:36:04;;;;;;;;;;;;;;;14.32;33.51;100469.38;4272109;33;34343;-93
2021/04/11 03:38:33;;;;;;;;;;;;;;;14.55;33.18;100465.94;4249061;33;33566;-92
2021/04/11 03:41:00;;;;;;;;;;;;;;;13.79;34.60;100471.13;4248483;33;32126;-92
2021/04/11 03:43:29;;;;;;;;;;;;;;;14.67;33.36;100475.16;4248752;33;34577;-92
2021/04/11 03:45:56;;;;;;;;;;;;;;;14.69;33.25;100468.97;4260397;33;32835;-92
2021/04/11 03:48:25;;;;;;;;;;;;;;;14.38;33.98;100468.31;4259820;33;34431;-92
2021/04/11 03:50:59;;;;;;;;;;;;;;;14.77;33.70;100466.06;4248378;33;32196;-92
2021/04/11 03:53:30;;;;;;;;;;;;;;;15.09;32.95;100463.13;4248334;33;32717;-92
2021/04/11 03:56:03;;;;;;;;;;;;;;;14.94;32.81;100462.78;4260251;33;34025;-93
2021/04/11 03:58:32;;;;;;;;;;;;;;;15.08;32.56;100459.66;4259814;33;33301;-92
2021/04/11 04:01:03;;;;;;;;;;;;;;;14.45;33.41;100462.81;4260186;33;33076;-93
2021/04/11 04:03:31;;;;;;;;;;;;;;;15.17;32.08;100463.69;4248480;33;32910;-91
2021/04/11 04:06:25;;;;;;;;;;;;;;;14.94;32.07;100461.94;4248182;33;32948;-92
2021/04/11 04:08:53;;;;;;;;;;;;;;;14.74;32.64;100460.91;4248119;33;32701;-92
2021/04/11 04:11:29;;;;;;;;;;;;;;;14.24;34.18;100468.78;4252210;33;32101;-92
2021/04/11 04:14:10;;;;;;;;;;;;;;;15.06;33.02;100466.72;4265299;33;33205;-92
2021/04/11 04:16:41;;;;;;;;;;;;;;;14.70;34.06;100467.19;4254884;33;34273;-92
2021/04/11 04:19:11;;;;;;;;;;;;;;;15.17;33.59;100480.31;4254680;33;33126;-92
2021/04/11 04:22:15;;;;;;;;;;;;;;;15.44;32.93;100472.25;4248788;33;33709;-91
2021/04/11 04:24:43;;;;;;;;;;;;;;;14.68;34.11;100477.72;4241947;33;33497;-91
2021/04/11 04:27:19;;;;;;;;;;;;;;;15.34;32.76;100478.78;4218715;33;34774;-92
2021/04/11 04:29:59;;;;;;;;;;;;;;;15.58;32.15;100468.22;4206885;33;33115;-93
2021/04/11 04:32:27;;;;;;;;;;;;;;;15.78;31.70;100476.16;4218793;33;33965;-92
2021/04/11 04:35:02;;;;;;;;;;;;;;;15.63;32.10;100482.88;4230555;33;33312;-92
2021/04/11 04:37:34;;;;;;;;;;;;;;;15.38;32.48;100488.25;4232140;33;34492;-92
2021/04/11 04:40:07;;;;;;;;;;;;;;;15.19;33.03;100491.56;4231755;33;34782;-91
2021/04/11 04:42:50;;;;;;;;;;;;;;;15.53;32.55;100487.66;4220297;33;32316;-91
2021/04/11 04:45:36;;;;;;;;;;;;;;;15.66;32.34;100488.03;4231813;33;33369;-92
2021/04/11 04:48:23;;;;;;;;;;;;;;;15.60;33.12;100493.50;4209067;33;33955;-92
2021/04/11 04:50:51;;;;;;;;;;;;;;;15.61;32.49;100492.59;4232474;33;33822;-92
2021/04/11 04:53:20;;;;;;;;;;;;;;;15.83;32.32;100497.91;4232314;33;33458;-92
2021/04/11 04:55:50;;;;;;;;;;;;;;;16.08;31.96;100493.38;4220138;33;32882;-93
2021/04/11 04:58:21;;;;;;;;;;;;;;;16.13;31.76;100494.91;4229562;33;33103;-91
2021/04/11 05:00:55;;;;;;;;;;;;;;;15.96;32.28;100489.50;4249498;33;32940;-92
2021/04/11 05:03:25;;;;;;;;;;;;;;;16.44;31.66;100495.38;4261478;33;33131;-92
2021/04/11 05:06:07;;;;;;;;;;;;;;;16.43;32.00;100501.53;4261636;33;33948;-93
2021/04/11 05:08:45;;;;;;;;;;;;;;;16.41;32.40;100498.13;4261733;33;34349;-92
2021/04/11 05:11:19;;;;;;;;;;;;;;;16.43;33.15;100491.88;4250415;33;32996;-92
2021/04/11 05:13:49;;;;;;;;;;;;;;;17.26;31.97;100489.97;4261426;33;31863;-91
2021/04/11 05:16:26;;;;;;;;;;;;;;;17.62;31.39;100486.50;4250032;33;34151;-93
2021/04/11 05:18:57;;;;;;;;;;;;;;;18.00;30.83;100496.09;4250486;33;34299;-92
2021/04/11 05:21:26;;;;;;;;;;;;;;;17.58;31.85;100492.00;4261624;33;33893;-92
2021/04/11 05:24:01;;;;;;;;;;;;;;;17.78;31.71;100494.50;4261599;33;33092;-93
2021/04/11 05:26:40;;;;;;;;;;;;;;;17.49;32.32;100495.91;4261337;33;32641;-92
2021/04/11 05:29:26;;;;;;;;;;;;;;;17.57;32.24;100490.28;4249733;33;33950;-92
2021/04/11 05:31:54;;;;;;;;;;;;;;;17.17;33.05;100490.38;4249633;33;33034;-92
2021/04/11 05:34:21;;;;;;;;;;;;;;;16.89;33.40;100496.03;4261550;33;33010;-92
2021/04/11 05:36:51;;;;;;;;;;;;;;;16.37;34.05;100495.63;4261444;33;32965;-93
2021/04/11 05:39:19;;;;;;;;;;;;;;;16.34;34.37;100503.66;4261344;33;32904;-93
2021/04/11 05:42:04;;;;;;;;;;;;;;;17.80;31.76;100500.56;4261328;33;32464;-93
2021/04/11 05:44:42;;;;;;;;;;;;;;;17.17;32.79;100500.91;4263036;33;32842;-92
2021/04/11 05:47:13;;;;;;;;;;;;;;;17.23;32.74;100498.00;4237721;33;32909;-92
2021/04/11 05:49:46;;;;;;;;;;;;;;;17.20;32.64;100506.03;4238897;33;35116;-91
2021/04/11 05:52:19;;;;;;;;;;;;;;;17.41;32.49;100505.97;4267557;33;33745;-92
2021/04/11 05:54:49;;;;;;;;;;;;;;;17.89;31.68;100506.31;4268503;33;32738;-93
2021/04/11 05:57:17;;;;;;;;;;;;;;;18.50;30.66;100503.22;4256458;33;33558;-92
2021/04/11 05:59:46;;;;;;;;;;;;;;;18.03;31.28;100517.06;4257201;33;32877;-92
2021/04/11 06:02:15;;;;;;;;;;;;;;;17.98;31.65;100517.28;4253699;33;33145;-93
2021/04/11 06:04:45;;;;;;;;;;;;;;;17.28;32.91;100511.78;4265495;33;33368;-93
2021/04/11 06:07:13;;;;;;;;;;;;;;;18.35;31.06;100515.44;4265265;33;34491;-92
2021/04/11 06:09:47;;;;;;;;;;;;;;;18.19;31.38;100517.97;4255486;33;33075;-93
2021/04/11 06:12:18;;;;;;;;;;;;;;;18.09;31.54;100515.88;4265516;33;32735;-92
2021/04/11 06:14:48;;;;;;;;;;;;;;;17.47;32.46;100522.34;4262341;33;33355;-94
2021/04/11 06:17:15;;;;;;;;;;;;;;;16.94;33.72;100526.50;4262220;33;34575;-93
2021/04/11 06:19:42;;;;;;;;;;;;;;;16.76;34.18;100519.41;4250419;33;34219;-93
2021/04/11 06:22:12;;;;;;;;;;;;;;;17.97;32.09;100523.47;4261385;33;33697;-93
2021/04/11 06:24:51;;;;;;;;;;;;;;;17.59;32.71;100522.66;4272979;33;32321;-93
2021/04/11 06:27:18;;;;;;;;;;;;;;;18.39;31.20;100528.44;4261430;33;33777;-93
2021/04/11 06:29:52;;;;;;;;;;;;;;;18.28;31.32;100529.88;4249545;33;33414;-93
2021/04/11 06:32:19;;;;;;;;;;;;;;;18.22;31.64;100516.97;4261636;33;33637;-92
2021/04/11 06:34:48;;;;;;;;;;;;;;;18.43;31.20;100514.19;4249768;33;33161;-92
2021/04/11 06:37:17;;;;;;;;;;;;;;;17.33;33.05;100520.34;4261619;33;33933;-93
2021/04/11 06:39:45;;;;;;;;;;;;;;;18.31;31.58;100520.94;4261254;33;33097;-94
2021/04/11 06:42:23;;;;;;;;;;;;;;;18.15;31.80;100523.50;4261457;33;33750;-93
2021/04/11 06:45:09;;;;;;;;;;;;;;;18.36;31.67;100519.78;4249236;33;32132;-93
2021/04/11 06:47:55;;;;;;;;;;;;;;;18.04;32.25;100524.00;4261339;33;34745;-91
2021/04/11 06:50:28;;;;;;;;;;;;;;;18.22;32.24;100521.41;4261450;33;33637;-93
2021/04/11 06:52:59;;;;;;;;;;;;;;;19.22;30.45;100521.47;4249020;33;33699;-93
2021/04/11 06:55:45;;;;;;;;;;;;;;;17.29;33.77;100521.41;4261510;33;33018;-93
2021/04/11 06:58:32;;;;;;;;;;;;;;;16.38;34.99;100522.78;4260941;33;33252;-93
2021/04/11 07:01:05;;;;;;;;;;;;;;;16.64;34.98;100528.69;4249473;33;33075;-93
2021/04/11 07:03:53;;;;;;;;;;;;;;;16.90;34.60;100529.34;4261239;33;33557;-93
2021/04/11 07:06:23;;;;;;;;;;;;;;;17.42;33.67;100523.50;4261376;33;32729;-92
2021/04/11 07:09:09;;;;;;;;;;;;;;;16.94;34.44;100526.50;4261477;33;34022;-93
2021/04/11 07:11:36;;;;;;;;;;;;;;;17.48;33.54;100531.94;4262335;33;33708;-93
2021/04/11 07:14:04;;;;;;;;;;;;;;;18.04;32.57;100529.28;4261272;33;32977;-92
2021/04/11 07:16:31;;;;;;;;;;;;;;;18.17;32.27;100533.06;4261317;33;31662;-92
2021/04/11 07:19:01;;;;;;;;;;;;;;;16.64;35.22;100532.16;4249517;33;32829;-93
2021/04/11 07:21:42;;;;;;;;;;;;;;;18.40;32.11;100523.12;4260964;33;33056;-92
2021/04/11 07:24:25;;;;;;;;;;;;;;;18.43;31.97;100530.03;4249161;33;34868;-93
2021/04/11 07:26:57;;;;;;;;;;;;;;;19.10;30.97;100533.56;4261078;33;32854;-92
2021/04/11 07:29:40;;;;;;;;;;;;;;;18.20;32.21;100529.38;4260950;33;33937;-94
2021/04/11 07:32:24;;;;;;;;;;;;;;;18.85;31.21;100528.69;4249222;33;32749;-93
2021/04/11 07:35:10;;;;;;;;;;;;;;;19.00;30.70;100535.84;4260860;33;34231;-94
2021/04/11 07:37:57;;;;;;;;;;;;;;;18.15;31.98;100531.41;4248884;33;32551;-94
2021/04/11 07:40:31;;;;;;;;;;;;;;;18.56;31.62;100536.38;4261003;33;32924;-93
2021/04/11 07:43:17;;;;;;;;;;;;;;;18.50;31.93;100541.97;4248808;33;33252;-93
2021/04/11 07:46:03;;;;;;;;;;;;;;;18.83;31.68;100539.34;4260670;33;32981;-93
2021/04/11 07:48:49;;;;;;;;;;;;;;;17.84;33.19;100540.78;4248899;33;32106;-93
2021/04/11 07:51:29;;;;;;;;;;;;;;;17.77;33.41;100539.38;4248861;33;33615;-93
2021/04/11 07:54:00;;;;;;;;;;;;;;;17.45;34.03;100542.63;4260933;33;33430;-93
2021/04/11 07:56:46;;;;;;;;;;;;;;;17.07;34.90;100547.88;4251111;33;32732;-93
2021/04/11 07:59:32;;;;;;;;;;;;;;;18.31;32.82;100542.06;4264233;33;32240;-93
2021/04/11 08:02:02;;;;;;;;;;;;;;;17.98;33.11;100548.91;4267483;33;33217;-93
2021/04/11 08:04:37;;;;;;;;;;;;;;;18.17;32.70;100554.16;4267873;33;34151;-93
2021/04/11 08:07:23;;;;;;;;;;;;;;;17.75;33.57;100543.88;4273104;33;33924;-93
2021/04/11 08:09:52;;;;;;;;;;;;;;;17.46;33.67;100544.34;4261790;33;33383;-92
2021/04/11 08:12:22;;;;;;;;;;;;;;;18.35;32.27;100546.25;4262655;33;34076;-93
2021/04/11 08:14:52;;;;;;;;;;;;;;;18.23;32.20;100538.91;4265721;33;35464;-92
2021/04/11 08:17:39;;;;;;;;;;;;;;;18.75;31.38;100538.91;4273105;33;32620;-92
2021/04/11 08:20:15;;;;;;;;;;;;;;;18.79;31.43;100537.81;4268401;33;33148;-94
2021/04/11 08:23:01;;;;;;;;;;;;;;;19.14;30.55;100543.00;4266020;33;34196;-92
2021/04/11 08:25:35;;;;;;;;;;;;;;;18.67;31.20;100541.09;4266137;33;33989;-94
2021/04/11 08:28:21;;;;;;;;;;;;;;;18.43;31.87;100545.84;4263106;33;34188;-92
2021/04/11 08:30:55;;;;;;;;;;;;;;;18.45;31.92;100543.97;4262761;33;32995;-93
2021/04/11 08:33:32;;;;;;;;;;;;;;;18.36;32.20;100543.50;4250571;33;34366;-92
2021/04/11 08:35:58;;;;;;;;;;;;;;;18.66;31.96;100534.94;4250724;33;33609;-93
2021/04/11 08:38:45;;;;;;;;;;;;;;;18.15;32.83;100539.34;4250628;33;32807;-93
2021/04/11 08:41:31;;;;;;;;;;;;;;;18.15;32.70;100545.44;4250544;33;32838;-94
2021/04/11 08:44:06;;;;;;;;;;;;;;;18.48;32.65;100543.81;4238941;33;32600;-94
2021/04/11 08:46:39;;;;;;;;;;;;;;;19.02;31.97;100546.31;4250493;33;33234;-94
2021/04/11 08:49:09;;;;;;;;;;;;;;;18.44;33.09;100553.69;4262160;33;32663;-93
2021/04/11 08:51:43;;;;;;;;;;;;;;;18.96;32.37;100552.78;4250372;33;32304;-94
2021/04/11 08:54:15;;;;;;;;;;;;;;;19.10;31.69;100548.56;4250640;33;32967;-92
2021/04/11 08:56:46;;;;;;;;;;;;;;;18.33;33.09;100545.44;4262298;33;32807;-93
2021/04/11 08:59:15;;;;;;;;;;;;;;;19.06;31.18;100544.38;4250251;33;32991;-94
2021/04/11 09:01:48;;;;;;;;;;;;;;;17.87;33.34;100551.19;4250470;33;32131;-92
2021/04/11 09:04:20;;;;;;;;;;;;;;;18.79;31.97;100550.16;4262439;33;34043;-93
2021/04/11 09:07:02;;;;;;;;;;;;;;;18.43;32.60;100540.56;4250039;33;33080;-93
2021/04/11 09:09:38;;;;;;;;;;;;;;;19.39;31.06;100554.06;4250276;33;33014;-93
2021/04/11 09:12:06;;;;;;;;;;;;;;;18.93;30.94;100552.97;4262199;33;33253;-93
2021/04/11 09:14:42;;;;;;;;;;;;;;;18.42;32.07;100544.12;4250549;33;34255;-92
2021/04/11 09:17:10;;;;;;;;;;;;;;;18.93;31.01;100549.44;4264003;33;33841;-93
2021/04/11 09:19:55;;;;;;;;;;;;;;;19.29;30.71;100540.47;4263533;33;34331;-93
2021/04/11 09:22:32;;;;;;;;;;;;;;;19.16;30.77;100545.59;4261669;33;32163;-94
2021/04/11 09:25:02;;;;;;;;;;;;;;;19.65;28.99;100540.25;4250122;33;32902;-94
2021/04/11 09:27:32;;;;;;;;;;;;;;;19.25;30.20;100549.50;4250270;33;33788;-94
2021/04/11 09:30:20;;;;;;;;;;;;;;;19.07;30.77;100544.28;4262058;33;34184;-93
2021/04/11 09:32:47;;;;;;;;;;;;;;;18.90;30.18;100553.09;4262252;33;33215;-93
2021/04/11 09:35:30;;;;;;;;;;;;;;;19.47;29.35;100543.91;4262072;33;33745;-93
2021/04/11 09:38:12;;;;;;;;;;;;;;;18.74;30.60;100565.38;4250105;33;32593;-92
2021/04/11 09:41:05;;;;;;;;;;;;;;;18.26;31.51;100555.44;4249572;33;32740;-93
2021/04/11 09:43:35;;;;;;;;;;;;;;;18.30;31.44;100553.53;4249977;33;32149;-92
2021/04/11 09:46:07;;;;;;;;;;;;;;;17.75;32.17;100557.91;4250108;33;33838;-94
2021/04/11 09:48:53;;;;;;;;;;;;;;;18.52;30.84;100562.06;4249827;33;32624;-93
2021/04/11 09:51:25;;;;;;;;;;;;;;;18.18;32.27;100555.00;4249544;33;33100;-93
2021/04/11 09:54:02;;;;;;;;;;;;;;;18.28;31.94;100552.72;4262162;33;32745;-93
2021/04/11 09:56:30;;;;;;;;;;;;;;;18.01;32.33;100556.66;4250030;33;32715;-93
2021/04/11 09:59:05;;;;;;;;;;;;;;;18.48;32.06;100563.16;4249727;33;33348;-93
2021/04/11 10:01:42;;;;;;;;;;;;;;;19.72;29.87;100553.97;4261845;33;32750;-93
2021/04/11 10:04:23;;;;;;;;;;;;;;;19.00;31.09;100551.69;4249856;33;31790;-93
2021/04/11 10:07:05;;;;;;;;;;;;;;;18.62;30.03;100551.88;4250113;33;33249;-93
2021/04/11 10:09:36;;;;;;;;;;;;;;;18.61;30.41;100558.06;4261811;33;33082;-92
2021/04/11 10:12:22;;;;;;;;;;;;;;;19.29;30.00;100548.41;4264598;33;33713;-94
2021/04/11 10:14:59;;;;;;;;;;;;;;;18.48;31.08;100544.69;4267133;33;31892;-93
2021/04/11 10:17:45;;;;;;;;;;;;;;;19.31;30.43;100530.69;4267250;33;34181;-94
2021/04/11 10:20:12;;;;;;;;;;;;;;;19.54;28.86;100537.31;4243648;33;33230;-93
2021/04/11 10:23:00;;;;;;;;;;;;;;;19.17;29.33;100537.59;4264473;33;33039;-93
2021/04/11 10:25:33;;;;;;;;;;;;;;;18.98;29.07;100552.69;4258522;33;32096;-93
2021/04/11 10:28:12;;;;;;;;;;;;;;;19.07;28.37;100546.09;4262177;33;32941;-93
2021/04/11 10:30:40;;;;;;;;;;;;;;;18.87;28.72;100538.25;4250663;33;32412;-93
2021/04/11 10:33:08;;;;;;;;;;;;;;;17.93;29.93;100556.19;4261469;33;33343;-93
2021/04/11 10:35:43;;;;;;;;;;;;;;;17.76;29.38;100545.56;4261898;33;31900;-93
2021/04/11 10:38:13;;;;;;;;;;;;;;;18.17;27.90;100540.97;4256900;33;33990;-92
2021/04/11 10:41:00;;;;;;;;;;;;;;;18.56;27.95;100546.94;4268201;33;33209;-93
2021/04/11 10:43:43;;;;;;;;;;;;;;;19.27;26.91;100548.50;4254387;33;33459;-93
2021/04/11 10:46:19;;;;;;;;;;;;;;;18.19;27.96;100546.16;4269008;33;32244;-93
2021/04/11 10:49:07;;;;;;;;;;;;;;;18.21;27.70;100535.53;4256598;33;32863;-92
2021/04/11 10:51:53;;;;;;;;;;;;;;;17.93;28.24;100529.81;4242668;33;32903;-92
2021/04/11 10:54:23;;;;;;;;;;;;;;;18.80;27.15;100528.09;4251203;33;33885;-93
2021/04/11 10:57:10;;;;;;;;;;;;;;;19.61;25.61;100525.50;4261656;33;32141;-94
2021/04/11 10:59:54;;;;;;;;;;;;;;;19.47;25.67;100515.69;4249934;33;33032;-93
2021/04/11 11:02:32;;;;;;;;;;;;;;;19.02;26.55;100515.47;4249654;33;33280;-94
2021/04/11 11:05:18;;;;;;;;;;;;;;;19.30;26.27;100511.31;4249408;33;34158;-93
2021/04/11 11:07:55;;;;;;;;;;;;;;;19.21;26.74;100498.63;4234693;33;890592;-93
2021/04/11 11:10:28;;;;;;;;;;;;;;;20.02;25.61;100498.50;4260936;33;32911;-93
2021/04/11 11:12:58;;;;;;;;;;;;;;;19.83;25.80;100503.16;4260871;33;32918;-93
2021/04/11 11:15:31;;;;;;;;;;;;;;;19.31;26.83;100502.47;4249352;33;32789;-93
2021/04/11 11:18:21;;;;;;;;;;;;;;;19.58;26.47;100503.66;4248971;33;32391;-93
2021/04/11 11:20:54;;;;;;;;;;;;;;;19.87;26.02;100498.53;4249252;33;34294;-93
2021/04/11 11:23:40;;;;;;;;;;;;;;;20.30;25.25;100494.22;4249050;33;34560;-93
2021/04/11 11:26:13;;;;;;;;;;;;;;;19.26;26.19;100499.22;4261044;33;32491;-94
2021/04/11 11:28:53;;;;;;;;;;;;;;;19.18;26.32;100496.16;4249590;33;32180;-94
2021/04/11 11:31:36;;;;;;;;;;;;;;;18.72;27.32;100503.88;4249508;33;33414;-93
2021/04/11 11:34:07;;;;;;;;;;;;;;;19.56;26.36;100493.19;4261381;33;34294;-94
2021/04/11 11:36:34;;;;;;;;;;;;;;;19.52;26.11;100496.94;4249731;33;33466;-94
2021/04/11 11:39:14;;;;;;;;;;;;;;;19.51;25.22;100500.50;4260970;33;32290;-93
2021/04/11 11:42:04;;;;;;;;;;;;;;;19.47;24.04;100497.19;4248679;33;33001;-93
2021/04/11 11:44:50;;;;;;;;;;;;;;;18.66;24.38;100500.63;4248146;33;33053;-93
2021/04/11 11:47:19;;;;;;;;;;;;;;;19.53;23.07;100494.19;4260950;33;32763;-93
2021/04/11 11:50:08;;;;;;;;;;;;;;;19.16;23.33;100490.97;4249099;33;32146;-95
2021/04/11 11:52:46;;;;;;;;;;;;;;;19.94;22.45;100491.94;4260532;33;33787;-93
2021/04/11 11:55:21;;;;;;;;;;;;;;;19.73;22.93;100491.34;4249059;33;32918;-95
2021/04/11 11:58:06;;;;;;;;;;;;;;;19.07;24.04;100493.28;4249033;33;34169;-92
2021/04/11 12:00:46;;;;;;;;;;;;;;;19.10;24.37;100487.81;4248812;33;32130;-92
2021/04/11 12:03:24;;;;;;;;;;;;;;;19.42;24.52;100485.16;4260785;33;32696;-93
2021/04/11 12:06:04;;;;;;;;;;;;;;;19.66;24.36;100475.88;4260488;33;33008;-93
2021/04/11 12:08:35;;;;;;;;;;;;;;;19.56;24.55;100476.44;4248748;33;32855;-93
2021/04/11 12:11:05;;;;;;;;;;;;;;;18.22;26.82;100472.16;4260328;33;32349;-92
2021/04/11 12:13:47;;;;;;;;;;;;;;;18.62;26.48;100464.78;4260706;33;33687;-92
2021/04/11 12:16:25;;;;;;;;;;;;;;;18.31;27.27;100460.28;4260761;33;34843;-93
2021/04/11 12:19:07;;;;;;;;;;;;;;;18.71;26.87;100466.09;4237387;33;32997;-93
2021/04/11 12:21:42;;;;;;;;;;;;;;;18.81;27.05;100467.31;4265735;33;32984;-93
2021/04/11 12:24:21;;;;;;;;;;;;;;;19.42;26.40;100467.53;4269121;33;35070;-93
2021/04/11 12:26:56;;;;;;;;;;;;;;;18.88;27.32;100462.56;4257760;33;33559;-93
2021/04/11 12:29:26;;;;;;;;;;;;;;;19.88;26.26;100456.12;4268584;33;35158;-93
2021/04/11 12:32:14;;;;;;;;;;;;;;;20.03;26.16;100454.37;4252649;33;32901;-93
2021/04/11 12:34:59;;;;;;;;;;;;;;;20.03;25.78;100452.56;4261039;33;34151;-93
2021/04/11 12:37:32;;;;;;;;;;;;;;;19.51;26.48;100451.13;4263301;33;34100;-93
2021/04/11 12:40:04;;;;;;;;;;;;;;;18.93;27.70;100446.47;4260865;33;32911;-93
2021/04/11 12:42:42;;;;;;;;;;;;;;;18.94;27.67;100435.81;4248504;33;32256;-94
2021/04/11 12:45:12;;;;;;;;;;;;;;;18.78;28.20;100427.84;4248368;33;33153;-93
2021/04/11 12:47:45;;;;;;;;;;;;;;;20.16;26.37;100425.41;4248180;33;33825;-93
2021/04/11 12:50:13;;;;;;;;;;;;;;;18.87;27.44;100435.28;4260260;33;33795;-94
2021/04/11 12:52:50;;;;;;;;;;;;;;;19.41;26.62;100427.97;4259674;33;31687;-93
2021/04/11 12:55:31;;;;;;;;;;;;;;;19.02;27.06;100423.03;4248268;33;33539;-93
2021/04/11 12:58:18;;;;;;;;;;;;;;;19.81;26.11;100417.75;4250796;33;33344;-93
2021/04/11 13:00:55;;;;;;;;;;;;;;;20.15;25.79;100418.41;4262253;33;33093;-94
2021/04/11 13:03:24;;;;;;;;;;;;;;;19.49;26.22;100412.53;4250382;33;32270;-93
2021/04/11 13:05:55;;;;;;;;;;;;;;;20.09;25.74;100408.19;4250360;33;33261;-93
2021/04/11 13:08:29;;;;;;;;;;;;;;;19.31;27.05;100412.66;4250701;33;32947;-93
2021/04/11 13:11:17;;;;;;;;;;;;;;;19.23;27.00;100406.09;4257595;33;32452;-93